Time;durP1;ratioP1;P1;durP2;ratioP2;P2;SDS_P1;SDS_P2;PMS_P1;PMS_P2;Temp;Humidity;BMP_temperature;BMP_pressure;BME280_temperature;BME280_humidity;BME280_pressure;Samples;Min_cycle;Max_cycle;Signal;HPM_P1;HPM_P2
2023/10/17 00:01:14;;;;;;;4.18;2.53;;;6.40;99.90;;;;;;5060223;28;20079;-84
2023/10/17 00:03:40;;;;;;;3.97;2.65;;;6.40;99.90;;;;;;5048346;28;20068;-84
2023/10/17 00:06:08;;;;;;;4.15;2.58;;;6.40;99.90;;;;;;5062186;28;20055;-84
2023/10/17 00:08:34;;;;;;;3.67;2.70;;;6.40;99.90;;;;;;5062759;28;20083;-84
2023/10/17 00:11:07;;;;;;;3.42;2.50;;;6.40;99.90;;;;;;5038182;28;20068;-84
2023/10/17 00:13:44;;;;;;;3.22;2.47;;;6.40;99.90;;;;;;5016046;28;20496;-82
2023/10/17 00:16:17;;;;;;;3.35;2.42;;;6.30;99.90;;;;;;5064168;28;20039;-83
2023/10/17 00:18:43;;;;;;;3.33;2.50;;;6.30;99.90;;;;;;5044813;28;20040;-84
2023/10/17 00:21:15;;;;;;;2.58;1.80;;;6.40;99.90;;;;;;5056941;28;20411;-84
2023/10/17 00:23:42;;;;;;;3.45;1.98;;;6.40;99.90;;;;;;5051151;28;20032;-85
2023/10/17 00:26:12;;;;;;;2.65;1.83;;;6.40;99.90;;;;;;5051045;28;20412;-84
2023/10/17 00:28:38;;;;;;;2.53;1.90;;;6.40;99.90;;;;;;5050662;28;20040;-84
2023/10/17 00:31:04;;;;;;;2.65;1.90;;;6.40;99.90;;;;;;5037493;28;20036;-82
2023/10/17 00:33:32;;;;;;;;;;;6.50;99.90;;;;;;5071235;28;20040;-82
2023/10/17 00:35:58;;;;;;;;;;;6.50;99.90;;;;;;5064277;28;20022;-84
2023/10/17 00:38:29;;;;;;;3.40;1.95;;;6.60;99.90;;;;;;5042135;28;19963;-83
2023/10/17 00:40:56;;;;;;;4.30;2.40;;;6.50;99.90;;;;;;5062126;28;20048;-83
2023/10/17 00:43:28;;;;;;;2.95;2.20;;;6.60;99.90;;;;;;5039889;28;20066;-83
2023/10/17 00:45:54;;;;;;;3.13;2.67;;;6.60;99.90;;;;;;5043239;28;20095;-83
2023/10/17 00:48:23;;;;;;;3.92;2.85;;;6.60;99.90;;;;;;5032402;28;20090;-79
2023/10/17 00:50:56;;;;;;;3.78;2.65;;;6.60;99.90;;;;;;5046993;28;20089;-78
2023/10/17 00:53:24;;;;;;;2.88;2.28;;;6.60;99.90;;;;;;5043344;28;20403;-78
2023/10/17 00:55:56;;;;;;;3.20;2.10;;;6.60;99.90;;;;;;5042602;28;20130;-78
2023/10/17 00:58:24;;;;;;;3.17;2.05;;;6.60;99.90;;;;;;5045613;28;20040;-79
2023/10/17 01:01:33;;;;;;;2.38;1.60;;;6.60;99.90;;;;;;5040370;28;20056;-78
2023/10/17 01:03:43;;;;;;;4.28;2.13;;;6.60;99.90;;;;;;5048545;28;20102;-78
2023/10/17 01:06:13;;;;;;;2.47;1.88;;;6.60;99.90;;;;;;5038825;28;20119;-79
2023/10/17 01:08:44;;;;;;;3.75;2.10;;;6.60;99.90;;;;;;5031002;28;20083;-78
2023/10/17 01:11:20;;;;;;;2.10;1.70;;;6.60;99.90;;;;;;5034122;28;20043;-78
2023/10/17 01:13:53;;;;;;;2.70;1.80;;;6.70;99.90;;;;;;5061545;28;20470;-78
2023/10/17 01:16:24;;;;;;;2.95;2.13;;;6.70;99.90;;;;;;5058590;28;20039;-78
2023/10/17 01:18:50;;;;;;;3.45;2.30;;;6.70;99.90;;;;;;5042618;28;20119;-78
2023/10/17 01:21:21;;;;;;;3.45;2.08;;;6.70;99.90;;;;;;5060218;28;20047;-78
2023/10/17 01:23:48;;;;;;;2.55;1.92;;;6.70;99.90;;;;;;5032127;28;20831;-78
2023/10/17 01:26:21;;;;;;;2.60;1.88;;;6.80;99.90;;;;;;5062696;28;20079;-78
2023/10/17 01:28:52;;;;;;;2.47;1.88;;;6.70;99.90;;;;;;5061205;28;20090;-78
2023/10/17 01:31:25;;;;;;;3.65;2.28;;;6.80;99.90;;;;;;5059465;28;20051;-78
2023/10/17 01:33:55;;;;;;;2.75;1.80;;;6.70;99.90;;;;;;5031481;28;20040;-78
2023/10/17 01:36:21;;;;;;;2.72;1.70;;;6.70;99.90;;;;;;5017903;28;20130;-78
2023/10/17 01:38:49;;;;;;;;;;;6.70;99.90;;;;;;5039417;28;20043;-79
2023/10/17 01:41:18;;;;;;;3.47;1.95;;;6.70;99.90;;;;;;5064356;28;19931;-78
2023/10/17 01:43:47;;;;;;;2.05;1.58;;;6.70;99.90;;;;;;5030034;28;20051;-78
2023/10/17 01:46:21;;;;;;;1.80;1.60;;;6.70;99.90;;;;;;5021848;28;20048;-78
2023/10/17 01:48:54;;;;;;;2.40;1.88;;;6.70;99.90;;;;;;5036388;28;20080;-78
2023/10/17 01:51:21;;;;;;;2.42;1.90;;;6.60;99.90;;;;;;5037593;28;20044;-78
2023/10/17 01:53:51;;;;;;;3.17;1.80;;;6.60;99.90;;;;;;5053702;28;20041;-78
2023/10/17 01:56:20;;;;;;;3.53;1.98;;;6.60;99.90;;;;;;5031004;28;20094;-78
2023/10/17 01:58:51;;;;;;;2.05;1.60;;;6.60;99.90;;;;;;5046983;28;20098;-78
2023/10/17 02:01:17;;;;;;;2.70;1.80;;;6.50;99.90;;;;;;5040530;28;20112;-78
2023/10/17 02:03:43;;;;;;;;;;;6.50;99.90;;;;;;5059641;28;20047;-78
2023/10/17 02:06:16;;;;;;;2.67;1.70;;;6.50;99.90;;;;;;5031326;28;19956;-78
2023/10/17 02:08:46;;;;;;;2.65;1.60;;;6.50;99.90;;;;;;5041332;28;20049;-78
2023/10/17 02:11:22;;;;;;;3.38;1.63;;;6.50;99.90;;;;;;5056637;28;20032;-79
2023/10/17 02:13:53;;;;;;;2.47;1.50;;;6.40;99.90;;;;;;5043425;28;20044;-79
2023/10/17 02:16:19;;;;;;;1.67;1.40;;;6.50;99.90;;;;;;5034802;28;20044;-78
2023/10/17 02:18:45;;;;;;;2.13;1.50;;;6.40;99.90;;;;;;5061059;28;20062;-78
2023/10/17 02:21:12;;;;;;;2.63;1.45;;;6.40;99.90;;;;;;5040935;28;20075;-78
2023/10/17 02:23:49;;;;;;;1.85;1.40;;;6.30;99.90;;;;;;5030834;28;20040;-79
2023/10/17 02:26:25;;;;;;;2.50;1.38;;;6.30;99.90;;;;;;5033408;28;20052;-78
2023/10/17 02:28:59;;;;;;;1.80;1.20;;;6.30;99.90;;;;;;5044319;28;20062;-78
2023/10/17 02:31:29;;;;;;;2.75;1.60;;;6.30;99.90;;;;;;5044749;28;20123;-79
2023/10/17 02:33:59;;;;;;;2.40;1.42;;;6.20;99.90;;;;;;5054945;28;20380;-78
2023/10/17 02:36:26;;;;;;;2.03;1.52;;;6.10;99.90;;;;;;5063610;28;20127;-79
2023/10/17 02:38:52;;;;;;;1.85;1.23;;;6.10;99.90;;;;;;5035811;28;20136;-78
2023/10/17 02:41:18;;;;;;;2.38;1.23;;;6.10;99.90;;;;;;5038901;28;20115;-78
2023/10/17 02:43:53;;;;;;;2.67;1.52;;;6.00;99.90;;;;;;5058070;28;20048;-78
2023/10/17 02:46:19;;;;;;;1.90;1.67;;;6.00;99.90;;;;;;5039529;28;20503;-79
2023/10/17 02:48:48;;;;;;;2.03;1.27;;;5.90;99.90;;;;;;5035026;28;20028;-79
2023/10/17 02:53:52;;;;;;;1.50;1.10;;;5.70;99.90;;;;;;5043056;28;20048;-79
2023/10/17 02:56:18;;;;;;;1.60;1.20;;;5.70;99.90;;;;;;5058537;28;20040;-79
2023/10/17 02:58:51;;;;;;;1.98;1.40;;;5.60;99.90;;;;;;5059002;28;20087;-79
2023/10/17 03:01:22;;;;;;;1.83;1.23;;;5.60;99.90;;;;;;5058981;28;20044;-78
2023/10/17 03:03:51;;;;;;;2.03;1.33;;;5.60;99.90;;;;;;5032287;28;20050;-78
2023/10/17 03:06:18;;;;;;;1.90;1.17;;;5.60;99.90;;;;;;5059772;28;20036;-78
2023/10/17 03:08:51;;;;;;;3.20;1.40;;;5.50;99.90;;;;;;5030562;28;20037;-79
2023/10/17 03:11:26;;;;;;;2.75;1.30;;;5.60;99.90;;;;;;5048091;28;20345;-78
2023/10/17 03:13:52;;;;;;;1.85;1.25;;;5.60;99.90;;;;;;5039029;28;20044;-78
2023/10/17 03:16:25;;;;;;;2.30;1.20;;;5.60;99.90;;;;;;5032023;28;20802;-77
2023/10/17 03:18:52;;;;;;;1.90;1.23;;;5.50;99.90;;;;;;5060994;28;20048;-78
2023/10/17 03:21:20;;;;;;;2.53;1.48;;;5.40;99.90;;;;;;5032635;28;20052;-78
2023/10/17 03:23:49;;;;;;;1.45;1.20;;;5.40;99.90;;;;;;5031462;28;20044;-78
2023/10/17 03:26:19;;;;;;;2.33;1.50;;;5.40;99.90;;;;;;5047303;28;20040;-78
2023/10/17 03:28:49;;;;;;;2.20;1.50;;;5.30;99.90;;;;;;5038732;28;20040;-78
2023/10/17 03:31:20;;;;;;;1.77;1.30;;;5.20;99.90;;;;;;5039239;28;20047;-78
2023/10/17 03:33:51;;;;;;;5.68;1.98;;;5.10;99.90;;;;;;5023648;28;20067;-78
2023/10/17 03:36:41;;;;;;;2.00;1.48;;;5.20;99.90;;;;;;5036809;28;20550;-78
2023/10/17 03:39:27;;;;;;;2.63;1.70;;;5.10;99.90;;;;;;5066576;28;20044;-79
2023/10/17 03:41:56;;;;;;;1.87;1.40;;;5.10;99.90;;;;;;5056444;28;20328;-78
2023/10/17 03:44:30;;;;;;;1.67;1.15;;;5.10;99.90;;;;;;5038073;28;20310;-79
2023/10/17 03:46:59;;;;;;;1.83;1.20;;;5.10;99.90;;;;;;5060609;28;20056;-78
2023/10/17 03:49:36;;;;;;;2.53;1.00;;;5.20;99.90;;;;;;5046932;28;21121;-78
2023/10/17 03:52:04;;;;;;;1.98;1.35;;;5.20;99.90;;;;;;5050397;28;20047;-78
2023/10/17 03:54:30;;;;;;;2.33;1.50;;;5.20;99.90;;;;;;5051676;28;20052;-79
2023/10/17 03:56:56;;;;;;;1.50;1.27;;;5.20;99.90;;;;;;5048933;28;20052;-78
2023/10/17 04:02:18;;;;;;;1.55;1.13;;;5.30;99.90;;;;;;5039356;28;20040;-78
2023/10/17 04:04:53;;;;;;;1.75;1.33;;;5.40;99.90;;;;;;5034643;28;20428;-78
2023/10/17 04:07:31;;;;;;;1.70;1.30;;;5.40;99.90;;;;;;5042694;28;20119;-78
2023/10/17 04:10:19;;;;;;;3.63;1.73;;;5.60;99.90;;;;;;5034865;28;20134;-77
2023/10/17 04:15:31;;;;;;;2.50;1.08;;;5.80;99.90;;;;;;5058248;28;20098;-77
2023/10/17 04:17:58;;;;;;;2.33;1.45;;;5.90;99.90;;;;;;5053052;28;20048;-82
2023/10/17 04:20:25;;;;;;;2.25;1.20;;;5.90;99.90;;;;;;5044833;28;20085;-85
2023/10/17 04:22:51;;;;;;;1.80;1.40;;;6.00;99.90;;;;;;5042968;28;20076;-82
2023/10/17 04:25:19;;;;;;;1.67;1.30;;;6.10;99.90;;;;;;5033230;28;20079;-81
2023/10/17 04:27:54;;;;;;;1.58;1.00;;;6.10;99.90;;;;;;5050111;28;20044;-82
2023/10/17 04:30:29;;;;;;;1.95;1.10;;;6.00;99.90;;;;;;5044585;28;20115;-82
2023/10/17 04:33:08;;;;;;;2.95;1.50;;;6.00;99.90;;;;;;5046480;28;20724;-77
2023/10/17 04:35:35;;;;;;;2.10;1.20;;;6.10;99.90;;;;;;5032807;28;20036;-77
2023/10/17 04:38:11;;;;;;;1.85;1.20;;;6.10;99.90;;;;;;5041233;28;20119;-77
2023/10/17 04:40:50;;;;;;;4.07;1.50;;;6.10;99.90;;;;;;5041607;28;20036;-78
2023/10/17 04:43:44;;;;;;;1.55;1.10;;;6.10;99.90;;;;;;5058915;28;20547;-78
2023/10/17 04:46:10;;;;;;;1.95;1.48;;;6.10;99.90;;;;;;5032643;28;20060;-78
2023/10/17 04:48:36;;;;;;;2.10;1.40;;;6.10;99.90;;;;;;5029000;28;20041;-77
2023/10/17 04:51:14;;;;;;;1.77;1.23;;;6.20;99.90;;;;;;5043549;28;20037;-78
2023/10/17 04:53:47;;;;;;;2.03;1.30;;;6.10;99.90;;;;;;5028922;28;20036;-77
2023/10/17 04:56:16;;;;;;;2.00;1.40;;;6.20;99.90;;;;;;5026605;28;20107;-83
2023/10/17 04:58:49;;;;;;;1.73;1.08;;;6.10;99.90;;;;;;5040556;28;20096;-84
2023/10/17 05:01:41;;;;;;;1.67;1.00;;;6.10;99.90;;;;;;5030311;28;20044;-87
2023/10/17 06:18:32;;;;;;;16.50;9.00;;;6.80;99.90;;;;;;5046878;28;20037;-83
2023/10/17 06:32:15;;;;;;;10.80;6.00;;;7.10;99.90;;;;;;5033943;28;20099;-84
2023/10/17 06:34:44;;;;;;;9.38;5.03;;;7.10;99.90;;;;;;5035842;28;20041;-83
2023/10/17 06:37:11;;;;;;;10.45;4.95;;;7.20;99.90;;;;;;5041251;28;20051;-83
2023/10/17 06:39:59;;;;;;;7.60;3.83;;;7.30;99.90;;;;;;5053368;28;20091;-83
2023/10/17 06:42:30;;;;;;;6.70;4.32;;;7.30;99.90;;;;;;5032787;28;20098;-83
2023/10/17 06:45:07;;;;;;;7.78;4.60;;;7.30;99.90;;;;;;5032035;28;20071;-82
2023/10/17 06:47:47;;;;;;;6.70;3.78;;;7.40;99.90;;;;;;5019547;28;20433;-83
2023/10/17 06:55:28;;;;;;;6.28;4.18;;;7.50;99.90;;;;;;5054209;28;20162;-83
2023/10/17 06:57:57;;;;;;;6.85;4.32;;;7.60;99.90;;;;;;5031520;28;20043;-84
2023/10/17 07:00:42;;;;;;;4.47;3.47;;;7.60;99.90;;;;;;5039171;28;20403;-84
2023/10/17 07:03:15;;;;;;;4.97;3.05;;;7.70;99.90;;;;;;5057760;28;20056;-84
2023/10/17 07:05:49;;;;;;;4.65;2.90;;;7.80;99.90;;;;;;5075676;28;20043;-84
2023/10/17 07:08:19;;;;;;;4.80;3.05;;;7.80;99.90;;;;;;5057339;28;20414;-84
2023/10/17 07:11:09;;;;;;;3.78;2.75;;;7.90;99.90;;;;;;5057503;28;20174;-83
2023/10/17 07:24:28;;;;;;;2.80;1.55;;;8.30;99.90;;;;;;5056882;28;20097;-84
2023/10/17 07:26:54;;;;;;;2.42;1.40;;;8.20;99.90;;;;;;5075023;28;20040;-84
2023/10/17 07:29:23;;;;;;;4.55;1.30;;;8.30;99.90;;;;;;5057461;28;20090;-84
2023/10/17 07:31:54;;;;;;;2.95;1.60;;;8.40;99.90;;;;;;5040547;28;20047;-85
2023/10/17 07:34:21;;;;;;;1.77;1.10;;;8.40;99.90;;;;;;5040758;28;20798;-84
2023/10/17 07:36:50;;;;;;;3.92;1.58;;;8.50;99.90;;;;;;5061730;28;20110;-84
2023/10/17 07:39:23;;;;;;;5.90;1.52;;;8.50;99.90;;;;;;5049471;28;20055;-84
2023/10/17 07:41:53;;;;;;;2.55;1.75;;;8.60;99.90;;;;;;5041843;28;20048;-84
2023/10/17 07:44:27;;;;;;;3.30;2.10;;;8.60;99.90;;;;;;5064156;28;20048;-85
2023/10/17 07:47:09;;;;;;;4.38;1.90;;;8.60;99.90;;;;;;5023719;28;20476;-84
2023/10/17 07:49:42;;;;;;;3.97;2.10;;;8.60;99.90;;;;;;5048458;28;20041;-84
2023/10/17 07:52:22;;;;;;;6.88;2.35;;;8.50;99.90;;;;;;5070454;28;20049;-85
2023/10/17 07:55:17;;;;;;;3.65;2.20;;;8.50;99.90;;;;;;5040180;28;20047;-85
2023/10/17 07:57:44;;;;;;;3.70;2.15;;;8.40;99.90;;;;;;5049010;28;20043;-85
2023/10/17 08:00:33;;;;;;;;;;;8.40;99.90;;;;;;5059255;28;20036;-85
2023/10/17 08:03:18;;;;;;;5.57;2.40;;;8.40;99.90;;;;;;5040099;28;19925;-85
2023/10/17 08:05:45;;;;;;;3.95;2.58;;;8.40;99.90;;;;;;5038479;28;20051;-85
2023/10/17 08:08:20;;;;;;;4.35;2.33;;;8.30;99.90;;;;;;5040186;28;20037;-85
2023/10/17 08:10:46;;;;;;;4.18;2.00;;;8.30;99.90;;;;;;5040790;28;20102;-84
2023/10/17 08:13:13;;;;;;;3.20;2.25;;;8.30;99.90;;;;;;5033514;28;20483;-85
2023/10/17 08:15:46;;;;;;;2.88;2.00;;;8.30;99.90;;;;;;5076918;28;20040;-85
2023/10/17 08:18:15;;;;;;;3.03;1.88;;;8.30;99.90;;;;;;5053657;28;20044;-85
2023/10/17 08:21:07;;;;;;;2.78;1.80;;;8.30;99.90;;;;;;5048083;28;20044;-85
2023/10/17 08:23:40;;;;;;;3.92;2.13;;;8.30;99.90;;;;;;5072521;28;20033;-85
2023/10/17 08:26:10;;;;;;;3.70;2.20;;;8.40;99.90;;;;;;5056260;28;20067;-84
2023/10/17 08:31:22;;;;;;;2.95;1.75;;;8.60;99.90;;;;;;5044781;28;20068;-84
2023/10/17 08:42:00;;;;;;;2.88;2.22;;;8.70;99.90;;;;;;5055866;28;20052;-85
2023/10/17 08:44:29;;;;;;;4.25;2.28;;;8.90;99.90;;;;;;5047556;28;20052;-85
2023/10/17 08:46:59;;;;;;;3.22;2.25;;;9.00;99.90;;;;;;5056284;28;20159;-86
2023/10/17 08:49:27;;;;;;;3.65;1.80;;;9.10;99.90;;;;;;5047863;28;20087;-80
2023/10/17 08:51:57;;;;;;;4.32;2.05;;;9.20;99.90;;;;;;5034306;28;20090;-80
2023/10/17 08:54:25;;;;;;;4.60;1.90;;;9.30;99.90;;;;;;5037114;28;20101;-80
2023/10/17 08:56:51;;;;;;;2.75;1.80;;;9.40;99.90;;;;;;5057687;28;20059;-80
2023/10/17 09:02:43;;;;;;;3.55;1.55;;;9.50;99.90;;;;;;5034291;28;20036;-80
2023/10/17 09:05:13;;;;;;;4.50;1.55;;;9.50;99.90;;;;;;5048717;28;20055;-80
2023/10/17 09:07:43;;;;;;;3.03;1.50;;;9.60;99.90;;;;;;5053506;28;20044;-80
2023/10/17 09:10:41;;;;;;;4.03;1.40;;;9.70;99.90;;;;;;5063433;28;20048;-80
2023/10/17 09:15:57;;;;;;;3.60;1.30;;;9.80;99.90;;;;;;5067427;28;20163;-80
2023/10/17 09:18:27;;;;;;;2.78;1.30;;;9.90;99.90;;;;;;5029320;28;20137;-86
2023/10/17 09:20:58;;;;;;;2.67;1.20;;;9.90;99.90;;;;;;5075169;28;20047;-86
2023/10/17 09:23:30;;;;;;;3.00;1.30;;;10.00;99.90;;;;;;5075031;28;20040;-86
2023/10/17 09:25:57;;;;;;;2.55;1.17;;;10.00;99.90;;;;;;5075241;28;20174;-86
2023/10/17 09:28:25;;;;;;;2.13;1.20;;;10.10;99.90;;;;;;5060788;28;20403;-87
2023/10/17 09:31:12;;;;;;;4.35;1.33;;;10.20;99.90;;;;;;5063047;28;20044;-87
2023/10/17 09:33:48;;;;;;;2.97;1.48;;;10.20;99.90;;;;;;5055083;28;20037;-86
2023/10/17 09:36:20;;;;;;;2.77;1.67;;;10.30;99.90;;;;;;5033820;28;20442;-86
2023/10/17 09:38:47;;;;;;;2.20;1.40;;;10.30;99.90;;;;;;5068405;28;20051;-87
2023/10/17 09:41:17;;;;;;;2.88;1.20;;;10.40;99.90;;;;;;5055191;28;20051;-87
2023/10/17 09:43:53;;;;;;;4.00;1.42;;;10.40;99.90;;;;;;5038343;28;20036;-86
2023/10/17 09:46:26;;;;;;;2.33;1.10;;;10.50;99.90;;;;;;5051872;28;20362;-86
2023/10/17 09:48:53;;;;;;;4.43;1.30;;;10.60;99.90;;;;;;5051973;28;20044;-85
2023/10/17 09:51:25;;;;;;;2.67;1.20;;;10.70;99.90;;;;;;5043843;28;20044;-86
2023/10/17 09:53:58;;;;;;;1.77;0.90;;;10.70;99.90;;;;;;5036149;28;20489;-86
2023/10/17 09:56:43;;;;;;;1.63;1.00;;;10.80;99.90;;;;;;5043977;28;20041;-86
2023/10/17 09:59:20;;;;;;;1.40;0.75;;;10.80;99.90;;;;;;5039884;28;20041;-86
2023/10/17 10:01:49;;;;;;;2.00;1.10;;;10.90;99.90;;;;;;5050042;28;20104;-86
2023/10/17 10:04:17;;;;;;;2.90;1.10;;;11.00;99.90;;;;;;5022168;28;20049;-80
2023/10/17 10:06:43;;;;;;;2.20;0.90;;;11.10;99.90;;;;;;5033359;28;20087;-80
2023/10/17 10:09:14;;;;;;;3.45;0.95;;;11.20;99.90;;;;;;5050107;28;20033;-80
2023/10/17 10:11:49;;;;;;;1.98;1.00;;;11.20;99.90;;;;;;5033121;28;20040;-80
2023/10/17 10:14:45;;;;;;;2.05;0.95;;;11.20;99.90;;;;;;5032539;28;20045;-80
2023/10/17 10:17:14;;;;;;;2.60;0.70;;;11.30;99.90;;;;;;5040714;28;20455;-79
2023/10/17 10:19:47;;;;;;;1.27;0.85;;;11.40;99.90;;;;;;5047204;28;20447;-80
2023/10/17 10:22:14;;;;;;;1.85;0.90;;;11.50;99.90;;;;;;5042117;28;20448;-81
2023/10/17 10:24:41;;;;;;;1.73;0.90;;;11.60;99.90;;;;;;5037029;28;20135;-81
2023/10/17 10:27:10;;;;;;;5.20;1.00;;;11.80;99.90;;;;;;5039233;28;20024;-79
2023/10/17 10:29:37;;;;;;;2.08;0.82;;;11.90;97.20;;;;;;5041720;28;20483;-78
2023/10/17 10:32:07;;;;;;;2.00;0.80;;;12.00;68.80;;;;;;5042252;28;20036;-86
2023/10/17 10:34:37;;;;;;;1.77;0.90;;;12.20;18.30;;;;;;5046361;28;20098;-80
2023/10/17 10:37:08;;;;;;;1.85;0.88;;;12.40;1.00;;;;;;5034182;28;20106;-81
2023/10/17 10:39:35;;;;;;;2.10;0.93;;;12.80;62.30;;;;;;5066898;28;20071;-81
2023/10/17 10:42:05;;;;;;;1.75;1.00;;;13.10;1.00;;;;;;5036484;28;20037;-83
2023/10/17 10:44:40;;;;;;;2.60;1.02;;;13.20;99.90;;;;;;5054218;28;20029;-83
2023/10/17 10:47:06;;;;;;;2.85;1.00;;;13.30;99.90;;;;;;5069762;28;20052;-83
2023/10/17 10:49:32;;;;;;;2.30;1.10;;;13.40;99.90;;;;;;5041835;28;20044;-83
2023/10/17 10:51:58;;;;;;;1.55;0.80;;;13.40;19.80;;;;;;5040238;28;20135;-83
2023/10/17 10:54:27;;;;;;;;;;;13.50;99.90;;;;;;5040139;28;20561;-82
2023/10/17 10:56:53;;;;;;;2.13;1.00;;;13.60;99.90;;;;;;5056570;28;19917;-85
2023/10/17 10:59:23;;;;;;;1.77;0.95;;;13.70;90.80;;;;;;5054955;28;20089;-83
2023/10/17 11:01:49;;;;;;;1.80;1.02;;;14.00;99.90;;;;;;5061340;28;20389;-82
2023/10/17 11:04:15;;;;;;;3.00;1.30;;;13.90;1.00;;;;;;5053686;28;20041;-84
2023/10/17 11:06:41;;;;;;;2.25;0.95;;;14.20;98.50;;;;;;5041706;28;20064;-83
2023/10/17 11:09:15;;;;;;;2.85;0.88;;;14.30;1.00;;;;;;5031875;28;20080;-83
2023/10/17 11:11:50;;;;;;;6.45;1.10;;;14.20;99.90;;;;;;5048234;28;20133;-83
2023/10/17 11:14:16;;;;;;;2.38;0.90;;;14.30;99.90;;;;;;5040752;28;20107;-84
2023/10/17 11:16:42;;;;;;;1.92;0.65;;;14.40;99.90;;;;;;5024418;28;20114;-84
2023/10/17 11:19:21;;;;;;;1.35;0.80;;;14.40;99.90;;;;;;5036961;28;20471;-83
2023/10/17 11:21:57;;;;;;;2.63;0.85;;;14.60;99.90;;;;;;5053634;28;20095;-83
2023/10/17 11:24:25;;;;;;;1.70;0.70;;;14.70;99.90;;;;;;5063815;28;20044;-79
2023/10/17 11:26:52;;;;;;;2.33;0.90;;;14.70;99.90;;;;;;5058951;28;20055;-79
2023/10/17 11:29:25;;;;;;;0.98;0.60;;;14.90;99.90;;;;;;5053441;28;20047;-80
2023/10/17 11:31:51;;;;;;;2.60;0.73;;;14.90;99.90;;;;;;5053495;28;20112;-80
2023/10/17 11:34:17;;;;;;;2.75;0.65;;;15.00;99.90;;;;;;5064969;28;20079;-79
2023/10/17 11:36:47;;;;;;;2.30;1.05;;;15.00;98.50;;;;;;5039862;28;20072;-79
2023/10/17 11:39:16;;;;;;;3.28;0.70;;;15.00;1.00;;;;;;5034506;28;20132;-79
2023/10/17 11:41:54;;;;;;;1.08;0.60;;;15.10;1.00;;;;;;5043647;28;20058;-79
2023/10/17 11:44:26;;;;;;;1.70;0.70;;;15.10;1.00;;;;;;5054960;28;20052;-79
2023/10/17 11:47:02;;;;;;;1.88;0.80;;;15.30;1.00;;;;;;5029239;28;20492;-79
2023/10/17 11:49:38;;;;;;;1.17;0.63;;;15.30;1.00;;;;;;5059340;28;20045;-80
2023/10/17 11:52:14;;;;;;;2.30;0.90;;;15.40;1.00;;;;;;5033737;28;20033;-79
2023/10/17 11:55:00;;;;;;;2.40;1.00;;;15.50;99.90;;;;;;5062599;28;20295;-79
2023/10/17 11:57:28;;;;;;;1.42;0.65;;;15.50;99.90;;;;;;5036854;28;20378;-79
2023/10/17 11:59:57;;;;;;;2.42;0.77;;;15.50;99.90;;;;;;5060136;28;20068;-79
2023/10/17 12:02:24;;;;;;;2.15;0.60;;;15.70;1.00;;;;;;5040816;28;20127;-79
2023/10/17 12:04:50;;;;;;;1.42;0.65;;;15.80;99.90;;;;;;5027461;28;20833;-78
2023/10/17 12:07:15;;;;;;;1.75;0.98;;;15.60;99.90;;;;;;5039265;28;20040;-78
2023/10/17 12:09:41;;;;;;;1.20;0.73;;;15.70;99.90;;;;;;5038059;28;20479;-79
2023/10/17 12:12:07;;;;;;;1.73;0.80;;;15.60;52.30;;;;;;5042406;28;20049;-79
2023/10/17 12:14:36;;;;;;;2.30;1.00;;;15.60;99.90;;;;;;5038224;28;20044;-79
2023/10/17 12:17:03;;;;;;;2.30;0.80;;;15.50;1.00;;;;;;5062460;28;20041;-79
2023/10/17 12:19:29;;;;;;;1.58;0.70;;;15.50;99.30;;;;;;5043945;28;20077;-78
2023/10/17 12:22:00;;;;;;;2.05;0.90;;;15.40;99.90;;;;;;5059378;28;20562;-80
2023/10/17 12:24:34;;;;;;;2.00;0.80;;;15.50;99.90;;;;;;5058230;28;20127;-80
2023/10/17 12:27:06;;;;;;;1.73;0.68;;;15.50;53.40;;;;;;5055593;28;20062;-80
2023/10/17 12:29:34;;;;;;;2.25;0.90;;;15.70;99.90;;;;;;5038787;28;20416;-80
2023/10/17 12:32:01;;;;;;;1.38;0.50;;;15.90;99.90;;;;;;5060312;28;20098;-83
2023/10/17 12:34:28;;;;;;;1.27;0.50;;;16.00;99.90;;;;;;5046790;28;20041;-79
2023/10/17 12:36:54;;;;;;;2.15;0.80;;;16.20;99.90;;;;;;5035056;28;20369;-80
2023/10/17 12:39:20;;;;;;;1.65;0.80;;;16.00;27.70;;;;;;5064242;28;20072;-82
2023/10/17 12:41:46;;;;;;;1.75;0.75;;;16.10;65.50;;;;;;5065220;28;20496;-82
2023/10/17 12:44:12;;;;;;;2.33;1.00;;;16.10;25.70;;;;;;5063589;28;20037;-81
2023/10/17 12:46:39;;;;;;;1.67;0.95;;;16.20;1.00;;;;;;5046221;28;20054;-80
2023/10/17 12:49:06;;;;;;;1.90;0.90;;;16.30;62.80;;;;;;5039546;28;20134;-81
2023/10/17 12:51:32;;;;;;;2.67;0.90;;;16.50;1.00;;;;;;5037784;28;20037;-81
2023/10/17 12:53:58;;;;;;;1.95;0.85;;;16.60;94.50;;;;;;5001610;28;20481;-81
2023/10/17 12:56:27;;;;;;;1.27;0.80;;;16.60;1.00;;;;;;5026790;28;20041;-81
2023/10/17 12:58:52;;;;;;;1.85;0.70;;;16.40;99.90;;;;;;5016970;28;20037;-83
2023/10/17 13:01:24;;;;;;;1.05;0.70;;;16.60;29.60;;;;;;5042680;28;20060;-83
2023/10/17 13:03:57;;;;;;;3.85;0.93;;;16.50;1.00;;;;;;5032116;28;20042;-81
2023/10/17 13:06:26;;;;;;;2.88;0.80;;;16.30;99.90;;;;;;5024813;28;20036;-83
2023/10/17 13:08:56;;;;;;;1.63;0.80;;;16.20;99.90;;;;;;5018879;28;20045;-83
2023/10/17 13:11:27;;;;;;;1.25;0.98;;;16.10;99.90;;;;;;5021479;28;20080;-83
2023/10/17 13:13:53;;;;;;;1.73;0.82;;;16.00;99.90;;;;;;5047903;28;20063;-83
2023/10/17 13:16:21;;;;;;;3.40;0.98;;;16.20;36.30;;;;;;5031488;28;20041;-83
2023/10/17 13:18:54;;;;;;;1.63;0.90;;;16.00;1.00;;;;;;5030950;28;20126;-83
2023/10/17 13:21:20;;;;;;;2.70;0.73;;;16.00;16.60;;;;;;5050276;28;20044;-84
2023/10/17 13:23:46;;;;;;;1.10;0.70;;;16.20;1.00;;;;;;5014708;28;20045;-83
2023/10/17 13:26:13;;;;;;;1.38;0.60;;;16.00;99.90;;;;;;5028885;28;20047;-83
2023/10/17 13:28:42;;;;;;;1.65;0.65;;;16.10;99.90;;;;;;5039251;28;20037;-83
2023/10/17 13:31:15;;;;;;;2.60;0.88;;;16.10;99.90;;;;;;5004956;28;20121;-83
2023/10/17 13:33:43;;;;;;;1.98;0.63;;;16.00;99.90;;;;;;5015256;28;20037;-83
2023/10/17 13:36:16;;;;;;;2.50;0.80;;;16.00;99.90;;;;;;5012100;28;20049;-83
2023/10/17 13:38:43;;;;;;;2.53;0.90;;;15.80;99.90;;;;;;5000254;28;20053;-83
2023/10/17 13:41:09;;;;;;;2.58;0.90;;;15.60;99.90;;;;;;5038739;28;20566;-83
2023/10/17 13:43:36;;;;;;;2.55;0.73;;;15.30;1.00;;;;;;5028807;28;20071;-82
2023/10/17 13:46:16;;;;;;;1.33;0.60;;;15.40;1.00;;;;;;5024135;28;20436;-83
2023/10/17 13:48:48;;;;;;;3.42;0.80;;;15.10;99.90;;;;;;5049867;28;20041;-83
2023/10/17 13:51:15;;;;;;;2.08;0.70;;;14.90;99.90;;;;;;5037739;28;20039;-82
2023/10/17 13:53:44;;;;;;;1.35;0.80;;;14.90;9.80;;;;;;5037697;28;20047;-84
2023/10/17 13:56:12;;;;;;;0.68;0.40;;;14.80;63.50;;;;;;5027567;28;20071;-81
2023/10/17 13:58:38;;;;;;;1.30;0.60;;;14.80;99.90;;;;;;5045012;28;20080;-83
2023/10/17 14:01:27;;;;;;;2.05;0.68;;;14.90;99.90;;;;;;5062468;28;20083;-84
2023/10/17 14:03:51;;;;;;;2.08;0.60;;;14.90;95.90;;;;;;5065099;28;20045;-84
2023/10/17 14:06:17;;;;;;;2.33;0.60;;;15.00;96.70;;;;;;5034550;28;20124;-83
2023/10/17 14:08:43;;;;;;;1.52;0.50;;;15.00;12.70;;;;;;5034459;28;20112;-83
2023/10/17 14:11:15;;;;;;;1.10;0.57;;;15.00;99.90;;;;;;5051042;28;20033;-83
2023/10/17 14:13:46;;;;;;;1.02;0.60;;;15.10;74.00;;;;;;5033995;28;20045;-78
2023/10/17 14:16:13;;;;;;;0.95;0.50;;;15.10;1.00;;;;;;5034131;28;20071;-83
2023/10/17 14:18:46;;;;;;;1.08;0.50;;;15.10;1.00;;;;;;5061777;28;20040;-84
2023/10/17 14:24:06;;;;;;;1.48;0.80;;;15.00;1.00;;;;;;5050884;28;20045;-84
2023/10/17 14:26:33;;;;;;;2.25;0.70;;;15.00;1.00;;;;;;5053750;28;20479;-83
2023/10/17 14:29:07;;;;;;;2.33;0.80;;;14.90;1.00;;;;;;5058102;28;20049;-83
2023/10/17 14:31:33;;;;;;;0.88;0.40;;;14.80;59.90;;;;;;5032712;28;20033;-83
2023/10/17 14:34:00;;;;;;;1.15;0.50;;;14.70;97.60;;;;;;5048972;28;20048;-80
2023/10/17 14:36:27;;;;;;;0.73;0.60;;;14.70;95.20;;;;;;5024550;28;20131;-79
2023/10/17 14:38:53;;;;;;;1.58;0.80;;;14.50;99.90;;;;;;5048776;28;20057;-79
2023/10/17 14:41:19;;;;;;;1.30;0.68;;;14.30;99.90;;;;;;5032298;28;20056;-79
2023/10/17 14:43:49;;;;;;;3.17;0.70;;;14.10;99.90;;;;;;5048513;28;20404;-79
2023/10/17 14:46:16;;;;;;;2.28;0.50;;;14.00;99.90;;;;;;5029956;28;20057;-79
2023/10/17 14:48:44;;;;;;;1.65;0.60;;;13.90;1.00;;;;;;5064397;28;20044;-79
2023/10/17 14:51:12;;;;;;;0.98;0.50;;;13.70;99.90;;;;;;5058427;28;20155;-79
2023/10/17 14:53:46;;;;;;;1.33;0.70;;;13.70;1.00;;;;;;5055715;28;20067;-80
2023/10/17 14:56:12;;;;;;;1.75;0.68;;;13.50;1.00;;;;;;5058717;28;20193;-79
2023/10/17 14:58:49;;;;;;;0.77;0.47;;;13.40;1.00;;;;;;5059079;28;20067;-78
2023/10/17 15:01:16;;;;;;;2.50;0.75;;;13.40;64.30;;;;;;5058881;28;20049;-78
2023/10/17 15:03:44;;;;;;;1.58;0.63;;;13.20;66.20;;;;;;5059689;28;20056;-78
2023/10/17 15:06:10;;;;;;;2.90;0.80;;;13.20;99.90;;;;;;5037319;28;20072;-78
2023/10/17 15:08:36;;;;;;;1.02;0.60;;;13.10;99.90;;;;;;5049979;28;20493;-78
2023/10/17 15:11:04;;;;;;;3.88;1.10;;;13.00;99.90;;;;;;5049157;28;20119;-78
2023/10/17 15:13:32;;;;;;;1.23;0.60;;;13.00;99.90;;;;;;5033333;28;20539;-78
2023/10/17 15:15:58;;;;;;;1.58;0.60;;;12.90;99.90;;;;;;5055750;28;20040;-78
2023/10/17 15:18:24;;;;;;;0.50;0.40;;;12.90;99.90;;;;;;5054684;28;20071;-79
2023/10/17 15:20:49;;;;;;;2.03;0.55;;;12.80;99.90;;;;;;5056837;28;20115;-80
2023/10/17 15:23:15;;;;;;;2.80;0.68;;;12.80;99.90;;;;;;5041435;28;20053;-79